Time;durP1;ratioP1;P1;durP2;ratioP2;P2;SDS_P1;SDS_P2;PMS_P1;PMS_P2;Temp;Humidity;BMP_temperature;BMP_pressure;BME280_temperature;BME280_humidity;BME280_pressure;Samples;Min_cycle;Max_cycle;Signal;HPM_P1;HPM_P2
2023/07/14 00:01:31;;;;;;;2.70;2.10;;;16.90;99.90;;;;;;5078575;28;21011;-68
2023/07/14 00:03:57;;;;;;;3.77;2.20;;;16.90;99.90;;;;;;5085054;28;20508;-67
2023/07/14 00:06:23;;;;;;;2.93;2.27;;;16.70;99.90;;;;;;5067258;28;20181;-68
2023/07/14 00:08:50;;;;;;;2.50;2.30;;;16.70;99.90;;;;;;5060448;28;20760;-68
2023/07/14 00:11:19;;;;;;;3.67;2.57;;;16.80;99.90;;;;;;5066002;28;20288;-68
2023/07/14 00:13:45;;;;;;;4.33;2.23;;;16.70;99.90;;;;;;5085503;28;20421;-68
2023/07/14 00:16:20;;;;;;;2.90;2.40;;;16.60;99.90;;;;;;5078008;28;20980;-68
2023/07/14 00:18:46;;;;;;;2.70;2.10;;;16.60;99.90;;;;;;5086758;28;21031;-68
2023/07/14 00:21:14;;;;;;;2.30;2.17;;;16.70;99.90;;;;;;5080006;28;20537;-67
2023/07/14 00:23:40;;;;;;;2.70;2.50;;;16.60;99.90;;;;;;5080309;28;20981;-68
2023/07/14 00:26:13;;;;;;;2.93;2.57;;;16.60;99.90;;;;;;5086376;28;20447;-68
2023/07/14 00:28:38;;;;;;;2.83;2.63;;;16.50;99.90;;;;;;5068393;28;20267;-68
2023/07/14 00:31:08;;;;;;;4.63;2.63;;;16.50;99.90;;;;;;5085880;28;20544;-68
2023/07/14 00:33:34;;;;;;;2.27;2.07;;;16.40;99.90;;;;;;5071771;28;20249;-68
2023/07/14 00:36:00;;;;;;;4.50;3.03;;;16.30;99.90;;;;;;5088133;28;20407;-69
2023/07/14 00:38:25;;;;;;;3.00;2.77;;;16.30;99.90;;;;;;5076711;28;20617;-69
2023/07/14 00:40:51;;;;;;;3.00;2.40;;;16.40;99.90;;;;;;5063698;28;20222;-68
2023/07/14 00:43:20;;;;;;;2.93;2.40;;;16.50;99.90;;;;;;5081621;28;20581;-69
2023/07/14 00:45:48;;;;;;;4.03;2.60;;;16.40;99.90;;;;;;5075971;28;20230;-68
2023/07/14 00:48:18;;;;;;;4.30;2.40;;;16.40;99.90;;;;;;5073771;28;20774;-68
2023/07/14 00:50:58;;;;;;;3.27;2.53;;;16.30;99.90;;;;;;5050250;28;20426;-69
2023/07/14 00:53:32;;;;;;;2.70;2.43;;;16.30;99.90;;;;;;5075373;28;20507;-69
2023/07/14 00:56:32;;;;;;;3.90;2.40;;;16.30;99.90;;;;;;5060603;28;20774;-69
2023/07/14 00:58:58;;;;;;;5.17;2.23;;;16.30;99.90;;;;;;5079890;28;20413;-69
2023/07/14 01:01:25;;;;;;;3.50;3.20;;;16.20;99.90;;;;;;5078859;28;20438;-70
2023/07/14 01:03:58;;;;;;;4.63;3.10;;;16.10;99.90;;;;;;5076623;28;20475;-69
2023/07/14 01:06:38;;;;;;;2.77;2.43;;;16.10;99.90;;;;;;5074815;28;20435;-69
2023/07/14 01:09:10;;;;;;;2.93;2.73;;;16.20;99.90;;;;;;5087326;28;20419;-69
2023/07/14 01:11:50;;;;;;;3.83;2.70;;;16.10;99.90;;;;;;5080197;28;20437;-69
2023/07/14 01:14:21;;;;;;;2.50;2.30;;;16.10;99.90;;;;;;5076392;28;20409;-69
2023/07/14 01:16:47;;;;;;;2.23;2.03;;;16.10;99.90;;;;;;5059325;28;20837;-70
2023/07/14 01:19:55;;;;;;;4.50;2.47;;;16.00;99.90;;;;;;5058265;28;20469;-70
2023/07/14 01:22:41;;;;;;;2.97;2.50;;;16.00;99.90;;;;;;5059089;28;20548;-68
2023/07/14 01:25:33;;;;;;;5.10;3.67;;;16.00;99.90;;;;;;5061620;28;20773;-69
2023/07/14 01:28:04;;;;;;;3.07;2.87;;;16.00;99.90;;;;;;5063600;28;20440;-69
2023/07/14 01:30:32;;;;;;;4.93;2.77;;;16.00;99.90;;;;;;5058776;28;20445;-68
2023/07/14 01:32:58;;;;;;;3.50;2.60;;;16.00;99.90;;;;;;5082685;28;20747;-68
2023/07/14 01:35:29;;;;;;;5.20;3.13;;;15.90;99.90;;;;;;5077889;28;20418;-68
2023/07/14 01:37:55;;;;;;;10.77;3.60;;;15.90;99.90;;;;;;5067308;28;20578;-69
2023/07/14 01:40:21;;;;;;;3.37;2.97;;;15.90;99.90;;;;;;5078697;28;20410;-69
2023/07/14 01:43:02;;;;;;;5.03;3.33;;;15.90;99.90;;;;;;5062799;28;20448;-69
2023/07/14 01:45:36;;;;;;;8.30;2.53;;;15.90;99.90;;;;;;5066514;28;21011;-69
2023/07/14 01:48:03;;;;;;;4.27;2.57;;;15.80;99.90;;;;;;5076903;28;20412;-69
2023/07/14 01:50:36;;;;;;;6.33;3.03;;;15.70;99.90;;;;;;5079131;28;20906;-68
2023/07/14 01:53:21;;;;;;;5.67;4.57;;;15.70;99.90;;;;;;5085581;28;20453;-69
2023/07/14 01:55:49;;;;;;;2.80;2.60;;;15.60;99.90;;;;;;5084803;28;20737;-69
2023/07/14 01:58:20;;;;;;;2.97;2.70;;;15.70;99.90;;;;;;5068255;28;20404;-68
2023/07/14 02:00:50;;;;;;;3.40;2.90;;;15.60;99.90;;;;;;5061983;28;20445;-69
2023/07/14 02:03:19;;;;;;;3.63;2.90;;;15.60;99.90;;;;;;5082739;28;20458;-68
2023/07/14 02:05:45;;;;;;;4.23;3.00;;;15.60;99.90;;;;;;5084525;28;20415;-68
2023/07/14 02:08:17;;;;;;;4.50;4.00;;;15.70;99.90;;;;;;5086937;28;20777;-68
2023/07/14 02:10:43;;;;;;;4.10;3.40;;;15.70;99.90;;;;;;5075876;28;20539;-69
2023/07/14 02:13:10;;;;;;;2.80;2.50;;;15.60;99.90;;;;;;5076508;28;20436;-69
2023/07/14 02:15:36;;;;;;;3.53;3.00;;;15.50;99.90;;;;;;5084073;28;20170;-69
2023/07/14 02:18:02;;;;;;;6.67;3.60;;;15.40;99.90;;;;;;5078855;28;20456;-68
2023/07/14 02:20:35;;;;;;;3.77;3.37;;;15.50;99.90;;;;;;5083457;28;20914;-68
2023/07/14 02:23:04;;;;;;;3.90;3.60;;;15.50;99.90;;;;;;5066419;28;20217;-68
2023/07/14 02:25:36;;;;;;;3.63;3.30;;;15.40;99.90;;;;;;5085711;28;20514;-68
2023/07/14 02:28:01;;;;;;;4.17;3.70;;;15.30;99.90;;;;;;5070974;28;20581;-68
2023/07/14 02:30:28;;;;;;;3.87;3.57;;;15.30;99.90;;;;;;5060360;28;20503;-69
2023/07/14 02:33:00;;;;;;;5.63;3.90;;;15.30;99.90;;;;;;5083816;28;20253;-68
2023/07/14 02:35:36;;;;;;;3.80;3.50;;;15.20;99.90;;;;;;5085515;28;20950;-68
2023/07/14 02:38:12;;;;;;;4.83;3.57;;;15.10;99.90;;;;;;5082654;28;20463;-68
2023/07/14 02:40:41;;;;;;;3.53;3.23;;;15.20;99.90;;;;;;5088581;28;20495;-67
2023/07/14 02:43:12;;;;;;;5.53;3.57;;;15.30;99.90;;;;;;5080141;28;20425;-68
2023/07/14 02:45:59;;;;;;;6.80;3.87;;;15.20;99.90;;;;;;5074002;28;20500;-68
2023/07/14 02:48:34;;;;;;;4.27;3.87;;;15.20;99.90;;;;;;5077823;28;20407;-68
2023/07/14 02:51:02;;;;;;;4.70;4.30;;;15.30;99.90;;;;;;5085521;28;20927;-68
2023/07/14 02:53:27;;;;;;;4.20;3.77;;;15.20;99.90;;;;;;5085254;28;20563;-69
2023/07/14 02:55:53;;;;;;;6.00;4.03;;;15.20;99.90;;;;;;5083614;28;20419;-68
2023/07/14 02:58:18;;;;;;;4.73;3.60;;;15.20;99.90;;;;;;5075435;28;20170;-68
2023/07/14 03:00:44;;;;;;;4.13;3.20;;;15.20;99.90;;;;;;5083101;28;20175;-67
2023/07/14 03:03:10;;;;;;;3.77;3.33;;;15.20;99.90;;;;;;5057095;28;20187;-69
2023/07/14 03:05:36;;;;;;;3.47;3.17;;;15.20;99.90;;;;;;5070887;28;20479;-69
2023/07/14 03:08:03;;;;;;;4.47;4.03;;;15.20;99.90;;;;;;5082907;28;20179;-70
2023/07/14 03:10:28;;;;;;;5.43;4.60;;;15.30;99.90;;;;;;5078740;28;20591;-68
2023/07/14 03:12:54;;;;;;;5.70;3.90;;;15.40;99.90;;;;;;5083884;28;20586;-69
2023/07/14 03:15:20;;;;;;;4.70;3.50;;;15.40;99.90;;;;;;5084631;28;20200;-68
2023/07/14 03:17:46;;;;;;;4.60;3.80;;;15.40;99.90;;;;;;5082204;28;20239;-68
2023/07/14 03:20:14;;;;;;;5.13;3.77;;;15.40;99.90;;;;;;5074177;28;20505;-70
2023/07/14 03:22:39;;;;;;;4.73;3.80;;;15.50;99.90;;;;;;5059447;28;21802;-68
2023/07/14 03:25:06;;;;;;;4.63;3.50;;;15.50;99.90;;;;;;5061931;28;20429;-68
2023/07/14 03:27:32;;;;;;;4.60;4.10;;;15.50;99.90;;;;;;5061225;28;20639;-68
2023/07/14 03:29:58;;;;;;;4.33;3.90;;;15.60;99.90;;;;;;5060239;28;20533;-67
2023/07/14 03:32:23;;;;;;;4.37;3.30;;;15.70;99.90;;;;;;5073049;28;20359;-69
2023/07/14 03:34:49;;;;;;;5.10;4.07;;;15.70;99.90;;;;;;5082135;28;20450;-67
2023/07/14 03:37:15;;;;;;;6.60;3.90;;;15.80;99.90;;;;;;5084717;28;20196;-68
2023/07/14 03:39:40;;;;;;;4.63;3.57;;;15.80;99.90;;;;;;5083629;28;20207;-68
2023/07/14 03:42:06;;;;;;;5.20;4.23;;;15.80;99.90;;;;;;5061753;28;20199;-69
2023/07/14 03:44:32;;;;;;;4.20;3.90;;;15.90;99.90;;;;;;5060795;28;20251;-69
2023/07/14 03:46:58;;;;;;;4.33;3.93;;;15.90;99.90;;;;;;5081227;28;20192;-69
2023/07/14 03:49:24;;;;;;;3.93;3.63;;;16.00;99.90;;;;;;5083904;28;20408;-70
2023/07/14 03:51:50;;;;;;;6.37;4.20;;;16.00;99.90;;;;;;5082199;28;20289;-70
2023/07/14 03:54:15;;;;;;;4.57;3.90;;;16.00;99.90;;;;;;5084925;28;20201;-69
2023/07/14 03:56:42;;;;;;;4.93;3.80;;;16.00;99.90;;;;;;5083097;28;20297;-69
2023/07/14 03:59:07;;;;;;;7.27;3.37;;;16.10;99.90;;;;;;5065370;28;20174;-70
2023/07/14 04:01:33;;;;;;;4.70;4.13;;;16.10;99.90;;;;;;5074589;28;20465;-70
2023/07/14 04:03:59;;;;;;;5.13;3.87;;;16.20;99.90;;;;;;5084557;28;20871;-69
2023/07/14 04:06:24;;;;;;;4.63;3.60;;;16.30;99.90;;;;;;5083365;28;20172;-69
2023/07/14 04:08:54;;;;;;;4.13;3.53;;;16.30;99.90;;;;;;5083599;28;20198;-70
2023/07/14 04:11:20;;;;;;;5.00;4.33;;;16.40;99.90;;;;;;5078785;28;20244;-70
2023/07/14 04:13:46;;;;;;;4.97;4.10;;;16.30;99.90;;;;;;5072656;28;20927;-69
2023/07/14 04:16:11;;;;;;;4.17;3.57;;;16.40;99.90;;;;;;5079797;28;20199;-69
2023/07/14 04:18:37;;;;;;;5.67;3.87;;;16.50;99.90;;;;;;5085718;28;20178;-69
2023/07/14 04:21:10;;;;;;;5.23;3.50;;;16.60;99.90;;;;;;5080949;28;20236;-70
2023/07/14 04:23:36;;;;;;;4.50;3.80;;;16.70;99.90;;;;;;5068158;28;20175;-68
2023/07/14 04:26:02;;;;;;;4.37;3.97;;;16.80;99.90;;;;;;5070626;28;20442;-68
2023/07/14 04:28:28;;;;;;;4.70;3.97;;;16.80;99.90;;;;;;5059326;28;20538;-70
2023/07/14 04:30:58;;;;;;;6.60;3.63;;;17.10;99.90;;;;;;5062661;28;20772;-69
2023/07/14 04:33:24;;;;;;;6.90;3.30;;;17.70;99.90;;;;;;5078326;28;20458;-69
2023/07/14 04:35:54;;;;;;;4.30;3.27;;;18.20;99.90;;;;;;5084590;28;20894;-69
2023/07/14 04:38:20;;;;;;;7.00;4.10;;;18.60;99.90;;;;;;5061152;28;20409;-68
2023/07/14 04:40:46;;;;;;;3.67;2.80;;;18.70;99.90;;;;;;5086723;28;20762;-68
2023/07/14 04:43:12;;;;;;;5.83;3.50;;;18.80;99.90;;;;;;5079797;28;20553;-69
2023/07/14 04:45:42;;;;;;;3.50;3.07;;;18.90;99.90;;;;;;5086418;28;20435;-68
2023/07/14 04:48:11;;;;;;;3.70;2.70;;;18.80;99.90;;;;;;5079409;28;20756;-68
2023/07/14 04:50:36;;;;;;;3.60;2.80;;;19.10;99.90;;;;;;5061099;28;20780;-68
2023/07/14 04:53:06;;;;;;;4.40;2.53;;;19.30;99.90;;;;;;5061483;28;20459;-68
2023/07/14 04:55:43;;;;;;;3.33;2.83;;;19.10;99.90;;;;;;5078258;28;20262;-67
2023/07/14 04:58:10;;;;;;;3.87;3.43;;;18.60;99.90;;;;;;5065099;28;20449;-69
2023/07/14 05:00:37;;;;;;;3.70;3.00;;;18.50;99.90;;;;;;5082415;28;20412;-69
2023/07/14 05:03:04;;;;;;;5.27;2.97;;;18.60;99.90;;;;;;5083308;28;20450;-69
2023/07/14 05:05:30;;;;;;;4.77;3.30;;;18.80;99.90;;;;;;5083734;28;20418;-70
2023/07/14 05:07:55;;;;;;;2.83;2.43;;;19.20;99.90;;;;;;5081877;28;20492;-69
2023/07/14 05:10:23;;;;;;;6.13;3.67;;;19.20;99.90;;;;;;5080489;28;20439;-69
2023/07/14 05:12:53;;;;;;;5.20;2.57;;;19.20;99.90;;;;;;5081804;28;20208;-70
2023/07/14 05:15:19;;;;;;;3.70;3.10;;;19.60;99.90;;;;;;5083355;28;20406;-68
2023/07/14 05:17:45;;;;;;;4.53;2.63;;;19.50;99.90;;;;;;5080418;28;20991;-68
2023/07/14 05:20:13;;;;;;;2.70;2.43;;;20.00;99.90;;;;;;5064556;28;20770;-69
2023/07/14 05:22:46;;;;;;;3.70;2.97;;;19.90;99.90;;;;;;5081896;28;20516;-68
2023/07/14 05:25:13;;;;;;;4.43;2.50;;;20.10;99.90;;;;;;5071215;28;20742;-68
2023/07/14 05:27:40;;;;;;;4.10;2.40;;;20.70;99.90;;;;;;5073277;28;20426;-69
2023/07/14 05:30:08;;;;;;;3.70;2.63;;;21.10;99.90;;;;;;5080811;28;20408;-69
2023/07/14 05:32:34;;;;;;;3.03;2.73;;;21.20;99.90;;;;;;5082628;28;20438;-68
2023/07/14 05:35:00;;;;;;;6.17;2.83;;;21.30;99.90;;;;;;5080351;28;20508;-68
2023/07/14 05:37:25;;;;;;;6.70;3.23;;;21.10;99.90;;;;;;5082609;28;20196;-68
2023/07/14 05:39:51;;;;;;;3.30;2.83;;;21.20;99.90;;;;;;5080947;28;20178;-68
2023/07/14 05:42:17;;;;;;;2.90;2.37;;;21.00;99.90;;;;;;5082642;28;20185;-69
2023/07/14 05:44:43;;;;;;;3.60;3.13;;;21.10;99.90;;;;;;5072730;28;20183;-69
2023/07/14 05:47:09;;;;;;;3.40;2.30;;;21.80;99.90;;;;;;5076092;28;20176;-69
2023/07/14 05:49:35;;;;;;;3.03;2.37;;;22.10;99.90;;;;;;5079610;28;20419;-69
2023/07/14 05:52:01;;;;;;;5.03;2.50;;;23.10;99.90;;;;;;5079573;28;20451;-69
2023/07/14 05:54:27;;;;;;;6.60;2.30;;;23.10;99.90;;;;;;5082741;28;20177;-69
2023/07/14 05:56:53;;;;;;;3.73;2.80;;;23.20;99.90;;;;;;5061494;28;20448;-68
2023/07/14 05:59:19;;;;;;;3.00;2.30;;;22.40;99.90;;;;;;5054147;28;20506;-68
2023/07/14 06:01:48;;;;;;;6.13;2.50;;;22.50;99.90;;;;;;5083750;28;21114;-69
2023/07/14 06:04:15;;;;;;;3.07;2.77;;;22.40;99.90;;;;;;5078698;28;20175;-70
2023/07/14 06:06:42;;;;;;;2.80;2.10;;;22.30;99.90;;;;;;5085175;28;20402;-69
2023/07/14 06:09:09;;;;;;;3.43;2.27;;;22.70;99.90;;;;;;5078544;28;20404;-68
2023/07/14 06:11:35;;;;;;;5.00;2.70;;;23.40;99.90;;;;;;5085075;28;20463;-69
2023/07/14 06:14:01;;;;;;;3.20;2.17;;;23.50;99.90;;;;;;5079801;28;20423;-67
2023/07/14 06:16:27;;;;;;;3.93;2.20;;;23.20;99.90;;;;;;5066325;28;20456;-68
2023/07/14 06:18:52;;;;;;;2.07;1.90;;;22.80;99.90;;;;;;5079524;28;20173;-68
2023/07/14 06:21:19;;;;;;;4.23;2.37;;;23.40;99.90;;;;;;5080599;28;20607;-68
2023/07/14 06:23:44;;;;;;;4.63;2.80;;;23.40;99.90;;;;;;5081045;28;20731;-69
2023/07/14 06:26:11;;;;;;;3.70;2.30;;;23.70;99.90;;;;;;5074806;28;20422;-69
2023/07/14 06:28:36;;;;;;;3.33;2.17;;;23.70;99.90;;;;;;5071129;28;20171;-69
2023/07/14 06:31:05;;;;;;;3.40;2.40;;;23.20;99.90;;;;;;5081124;28;20395;-69
2023/07/14 06:33:32;;;;;;;3.93;2.53;;;23.10;99.90;;;;;;5072671;28;20266;-68
2023/07/14 06:35:57;;;;;;;5.60;2.60;;;23.50;99.90;;;;;;5065818;28;20800;-68
2023/07/14 06:38:24;;;;;;;3.87;2.10;;;24.70;99.90;;;;;;5076767;28;20404;-68
2023/07/14 06:41:01;;;;;;;2.50;2.00;;;24.70;99.90;;;;;;5089117;28;20176;-68
2023/07/14 06:43:30;;;;;;;2.80;2.23;;;25.20;99.90;;;;;;5082151;28;20419;-68
2023/07/14 06:45:56;;;;;;;4.87;2.60;;;25.30;99.90;;;;;;5056484;28;20506;-69
2023/07/14 06:48:21;;;;;;;2.57;2.17;;;25.60;99.90;;;;;;5036683;28;20454;-69
2023/07/14 06:50:47;;;;;;;2.90;2.10;;;25.10;99.90;;;;;;5081544;28;20181;-69
2023/07/14 06:53:13;;;;;;;2.53;2.33;;;24.60;99.90;;;;;;5087048;28;20281;-69
2023/07/14 06:55:39;;;;;;;3.43;2.00;;;25.50;99.90;;;;;;5082461;28;20177;-71
2023/07/14 06:58:06;;;;;;;2.57;1.90;;;25.80;99.90;;;;;;5067813;28;20470;-69
2023/07/14 07:00:33;;;;;;;2.30;2.10;;;24.70;99.90;;;;;;5087539;28;20497;-68
2023/07/14 07:03:00;;;;;;;3.57;2.20;;;24.90;99.90;;;;;;5083922;28;20897;-68
2023/07/14 07:05:25;;;;;;;2.37;2.17;;;25.40;99.90;;;;;;5085365;28;20901;-69
2023/07/14 07:07:53;;;;;;;2.53;1.73;;;26.70;99.90;;;;;;5067308;28;20428;-69
2023/07/14 07:10:19;;;;;;;3.13;2.00;;;26.60;99.90;;;;;;5083403;28;20189;-68
2023/07/14 07:12:44;;;;;;;4.40;2.40;;;25.50;99.90;;;;;;5083077;28;20420;-69
2023/07/14 07:15:10;;;;;;;2.90;2.13;;;25.20;99.90;;;;;;5070561;28;20465;-68
2023/07/14 07:17:38;;;;;;;2.17;1.70;;;24.50;99.90;;;;;;5085887;28;20232;-68
2023/07/14 07:20:06;;;;;;;2.10;1.70;;;24.90;99.90;;;;;;5084189;28;20167;-69
2023/07/14 07:22:32;;;;;;;2.30;1.93;;;25.70;99.90;;;;;;5084827;28;20427;-70
2023/07/14 07:24:58;;;;;;;2.90;2.20;;;26.30;99.90;;;;;;5078700;28;20742;-70
2023/07/14 07:27:24;;;;;;;6.80;1.80;;;25.60;99.90;;;;;;5074773;28;20415;-70
2023/07/14 07:29:50;;;;;;;4.47;1.87;;;26.20;99.90;;;;;;5081588;28;20186;-68
2023/07/14 07:32:17;;;;;;;3.60;1.80;;;26.20;99.90;;;;;;5081767;28;20253;-68
2023/07/14 07:34:42;;;;;;;2.07;1.70;;;25.70;99.90;;;;;;5073467;28;20427;-70
2023/07/14 07:37:09;;;;;;;2.70;2.07;;;26.40;99.90;;;;;;5082952;28;20478;-74
2023/07/14 07:39:34;;;;;;;3.23;2.00;;;26.70;99.90;;;;;;5083984;28;20546;-69
2023/07/14 07:42:00;;;;;;;2.10;1.90;;;25.50;99.90;;;;;;5065069;28;20960;-69
2023/07/14 07:44:27;;;;;;;4.27;2.07;;;26.70;99.90;;;;;;5084732;28;20161;-69
2023/07/14 07:46:53;;;;;;;2.33;1.60;;;26.40;99.90;;;;;;5083612;28;20169;-69
2023/07/14 07:49:19;;;;;;;2.30;1.77;;;26.30;99.90;;;;;;5083279;28;20414;-69
2023/07/14 07:51:44;;;;;;;3.90;1.70;;;25.70;99.90;;;;;;5068202;28;21384;-68
2023/07/14 07:54:10;;;;;;;1.90;1.50;;;25.70;99.90;;;;;;5070133;28;20744;-68
2023/07/14 07:56:36;;;;;;;2.37;1.47;;;27.50;99.90;;;;;;5082630;28;20213;-68
2023/07/14 07:59:02;;;;;;;4.37;1.53;;;26.60;99.20;;;;;;5079682;28;20227;-69
2023/07/14 08:01:28;;;;;;;1.70;1.60;;;25.50;99.90;;;;;;5084483;28;20990;-68
2023/07/14 08:03:53;;;;;;;3.60;1.57;;;26.20;99.90;;;;;;5082792;28;20624;-68
2023/07/14 08:06:21;;;;;;;2.00;1.67;;;27.90;98.70;;;;;;5083701;28;20412;-69
2023/07/14 08:08:47;;;;;;;2.67;2.17;;;27.10;99.20;;;;;;5083892;28;20208;-68
2023/07/14 08:11:14;;;;;;;2.90;2.00;;;26.40;99.90;;;;;;5068686;28;20509;-68
2023/07/14 08:13:40;;;;;;;1.70;1.57;;;26.80;99.90;;;;;;5063991;28;20505;-68
2023/07/14 08:16:06;;;;;;;2.03;1.73;;;25.90;99.50;;;;;;5067854;28;20485;-70
2023/07/14 08:18:32;;;;;;;2.73;2.00;;;25.50;99.90;;;;;;5079887;28;20420;-69
2023/07/14 08:20:59;;;;;;;2.50;2.30;;;25.70;99.90;;;;;;5079694;28;20898;-68
2023/07/14 08:23:25;;;;;;;5.33;1.87;;;27.00;99.60;;;;;;5058256;28;20476;-67
2023/07/14 08:26:03;;;;;;;2.60;1.93;;;27.50;99.30;;;;;;5064099;28;20432;-67
2023/07/14 08:28:30;;;;;;;2.13;1.53;;;27.20;99.00;;;;;;5077984;28;20469;-67
2023/07/14 08:31:00;;;;;;;3.07;1.87;;;26.70;98.30;;;;;;5072824;28;20519;-67
2023/07/14 08:33:27;;;;;;;2.30;1.73;;;26.30;97.60;;;;;;5082269;28;20906;-71
2023/07/14 08:35:53;;;;;;;3.90;2.03;;;26.40;98.30;;;;;;5080688;28;20478;-68
2023/07/14 08:38:20;;;;;;;1.63;1.50;;;26.30;98.00;;;;;;5085366;28;20444;-68
2023/07/14 08:41:00;;;;;;;4.73;2.10;;;27.20;98.10;;;;;;5078151;28;20496;-69
2023/07/14 08:43:43;;;;;;;2.03;1.80;;;26.90;97.70;;;;;;5074327;28;20423;-68
2023/07/14 08:46:24;;;;;;;3.50;1.33;;;26.60;97.70;;;;;;5082116;28;20400;-68
2023/07/14 08:49:28;;;;;;;3.17;1.80;;;26.00;97.80;;;;;;5080996;28;20411;-68
2023/07/14 08:51:58;;;;;;;2.53;2.10;;;25.40;98.50;;;;;;5048752;28;20817;-68
2023/07/14 08:54:34;;;;;;;2.30;1.77;;;25.60;98.70;;;;;;5060068;28;20523;-69
2023/07/14 08:57:01;;;;;;;2.43;1.90;;;26.30;98.90;;;;;;5079717;28;20451;-70
2023/07/14 08:59:47;;;;;;;4.93;2.30;;;25.40;98.60;;;;;;5079344;28;20418;-68
2023/07/14 09:02:43;;;;;;;2.70;1.70;;;25.70;99.40;;;;;;5072904;28;20444;-69
2023/07/14 09:05:19;;;;;;;2.60;1.50;;;26.00;97.60;;;;;;5068235;28;20455;-69
2023/07/14 09:07:45;;;;;;;2.70;1.93;;;25.80;97.80;;;;;;5076769;28;20413;-68
2023/07/14 09:10:12;;;;;;;2.33;2.03;;;25.80;97.30;;;;;;5082862;28;20461;-68
2023/07/14 09:13:15;;;;;;;3.00;1.40;;;26.70;97.90;;;;;;5082945;28;20275;-67
2023/07/14 09:15:41;;;;;;;2.00;1.80;;;26.40;97.50;;;;;;5077279;28;20449;-68
2023/07/14 09:18:16;;;;;;;1.87;1.47;;;27.60;97.00;;;;;;5062197;28;20529;-68
2023/07/14 09:21:02;;;;;;;2.33;1.73;;;28.70;95.70;;;;;;5080940;28;20432;-68
2023/07/14 09:23:32;;;;;;;2.40;1.93;;;28.80;95.10;;;;;;5077466;28;20403;-69
2023/07/14 09:26:31;;;;;;;3.40;1.83;;;27.50;94.80;;;;;;5080687;28;20407;-68
2023/07/14 09:28:58;;;;;;;2.30;2.07;;;26.70;96.20;;;;;;5081425;28;20525;-69
2023/07/14 09:31:39;;;;;;;2.13;2.00;;;25.80;96.70;;;;;;5079190;28;20444;-69
2023/07/14 09:34:32;;;;;;;3.43;1.60;;;26.80;97.00;;;;;;5082031;28;20423;-68
2023/07/14 09:36:58;;;;;;;2.70;1.70;;;28.00;94.60;;;;;;5048579;28;21100;-68
2023/07/14 09:39:37;;;;;;;2.53;2.00;;;27.90;95.20;;;;;;5072887;28;20411;-68
2023/07/14 09:42:10;;;;;;;2.83;1.50;;;27.80;95.30;;;;;;5061290;28;20428;-66
2023/07/14 09:44:35;;;;;;;2.40;1.73;;;26.70;94.90;;;;;;5082617;28;20412;-68
2023/07/14 09:47:03;;;;;;;2.33;2.10;;;26.90;94.00;;;;;;5081648;28;20454;-67
2023/07/14 09:49:37;;;;;;;4.33;2.33;;;27.20;94.00;;;;;;5082722;28;20180;-66
2023/07/14 09:52:09;;;;;;;2.33;1.20;;;27.10;94.00;;;;;;5080055;28;20879;-68
2023/07/14 09:54:35;;;;;;;2.10;1.70;;;26.10;95.10;;;;;;5079155;28;20431;-69
2023/07/14 09:57:02;;;;;;;2.47;1.70;;;26.00;95.90;;;;;;5078409;28;20448;-68
2023/07/14 09:59:28;;;;;;;2.77;1.87;;;25.10;96.20;;;;;;5078550;28;20456;-67
2023/07/14 10:02:00;;;;;;;2.10;1.90;;;25.00;96.90;;;;;;5072008;28;21237;-68
2023/07/14 10:04:31;;;;;;;2.43;1.80;;;25.30;97.30;;;;;;5073297;28;20484;-67
2023/07/14 10:07:25;;;;;;;3.63;2.20;;;25.20;96.60;;;;;;5085117;28;20438;-67
2023/07/14 10:10:12;;;;;;;3.87;1.97;;;25.90;95.80;;;;;;5074745;28;20514;-68
2023/07/14 10:12:43;;;;;;;5.10;1.87;;;25.50;95.50;;;;;;5062992;28;20462;-68
2023/07/14 10:15:32;;;;;;;4.27;1.80;;;26.40;94.80;;;;;;5065267;28;20533;-68
2023/07/14 10:18:15;;;;;;;2.83;1.67;;;26.40;95.40;;;;;;5069203;28;20549;-67
2023/07/14 10:20:42;;;;;;;4.53;2.20;;;25.70;93.90;;;;;;5065494;28;20910;-68
2023/07/14 10:23:16;;;;;;;3.40;1.70;;;26.50;95.10;;;;;;5040945;28;20441;-68
2023/07/14 10:25:49;;;;;;;2.77;1.77;;;26.30;93.90;;;;;;5080875;28;20424;-67
2023/07/14 10:28:20;;;;;;;1.97;1.47;;;25.70;93.80;;;;;;5080296;28;20539;-66
2023/07/14 10:30:50;;;;;;;6.13;1.83;;;25.20;94.60;;;;;;5088849;28;20407;-67
2023/07/14 10:33:38;;;;;;;2.83;1.60;;;25.00;96.80;;;;;;5077998;28;20398;-68
2023/07/14 10:36:34;;;;;;;2.73;2.00;;;25.10;95.70;;;;;;5089872;28;20413;-67
2023/07/14 10:39:54;;;;;;;1.77;1.57;;;25.60;93.90;;;;;;5078819;28;20430;-67
2023/07/14 10:42:25;;;;;;;2.50;2.27;;;25.80;93.50;;;;;;5037083;28;20496;-67
2023/07/14 10:44:51;;;;;;;2.67;2.47;;;25.60;93.30;;;;;;5059018;28;20961;-66
2023/07/14 10:47:27;;;;;;;9.00;2.30;;;25.50;93.70;;;;;;5068182;28;20797;-67
2023/07/14 10:50:05;;;;;;;2.30;2.10;;;24.90;95.10;;;;;;5082507;28;20494;-68
2023/07/14 10:52:39;;;;;;;3.23;1.90;;;24.90;95.40;;;;;;5081475;28;20451;-68
2023/07/14 10:55:25;;;;;;;2.90;1.80;;;24.80;95.40;;;;;;5082592;28;20421;-68
2023/07/14 10:57:56;;;;;;;2.17;1.77;;;24.60;95.20;;;;;;5049261;28;20553;-68
2023/07/14 11:00:38;;;;;;;2.23;1.70;;;24.90;95.20;;;;;;5043112;28;21052;-68
2023/07/14 11:03:24;;;;;;;2.27;1.83;;;25.50;95.70;;;;;;5068648;28;20450;-68
2023/07/14 11:06:14;;;;;;;1.60;1.50;;;25.10;94.60;;;;;;5081627;28;20415;-67
2023/07/14 11:08:40;;;;;;;4.97;2.10;;;24.90;96.50;;;;;;5085205;28;20399;-67
2023/07/14 11:11:16;;;;;;;3.73;2.50;;;25.00;96.80;;;;;;5084400;28;20426;-67
2023/07/14 11:14:07;;;;;;;3.40;2.50;;;25.40;95.90;;;;;;5085338;28;20175;-67
2023/07/14 11:16:42;;;;;;;3.73;1.67;;;25.40;95.80;;;;;;5083103;28;20992;-68
2023/07/14 11:19:26;;;;;;;2.10;1.90;;;25.70;95.20;;;;;;5054309;28;20476;-67
2023/07/14 11:22:04;;;;;;;3.20;1.90;;;25.20;94.50;;;;;;5078163;28;20966;-67
2023/07/14 11:24:41;;;;;;;3.30;2.50;;;26.00;93.20;;;;;;5085167;28;20410;-68
2023/07/14 11:27:19;;;;;;;2.37;1.80;;;26.40;93.50;;;;;;5084117;28;20401;-68
2023/07/14 11:30:07;;;;;;;2.47;1.80;;;26.80;92.90;;;;;;5083777;28;20517;-67
2023/07/14 11:32:57;;;;;;;3.37;1.93;;;26.70;92.40;;;;;;5076778;28;20776;-67
2023/07/14 11:35:44;;;;;;;3.03;1.97;;;26.00;92.90;;;;;;5071978;28;20436;-66
2023/07/14 11:38:19;;;;;;;3.50;1.87;;;25.70;94.50;;;;;;5066458;28;20770;-67
2023/07/14 11:40:49;;;;;;;2.83;1.97;;;25.70;92.40;;;;;;5086213;28;20409;-66
2023/07/14 11:43:22;;;;;;;2.30;2.10;;;25.60;92.20;;;;;;5077356;28;20416;-67
2023/07/14 11:45:57;;;;;;;3.60;2.10;;;25.70;91.90;;;;;;5088610;28;20471;-67
2023/07/14 11:48:45;;;;;;;3.20;2.03;;;26.20;91.80;;;;;;5081213;28;20407;-66
2023/07/14 11:51:14;;;;;;;2.83;2.00;;;26.30;90.40;;;;;;5031352;28;20866;-67
2023/07/14 11:54:01;;;;;;;3.93;2.07;;;26.50;91.80;;;;;;5077776;28;20434;-66
2023/07/14 11:56:27;;;;;;;2.50;2.23;;;26.70;92.00;;;;;;5073204;28;20666;-66
2023/07/14 11:59:22;;;;;;;3.20;2.13;;;26.10;92.30;;;;;;5077517;28;20418;-67
2023/07/14 12:01:54;;;;;;;2.50;2.30;;;26.20;92.50;;;;;;5083369;28;20439;-63
2023/07/14 12:04:22;;;;;;;4.00;2.70;;;26.70;91.80;;;;;;5075931;28;20405;-66
2023/07/14 12:07:09;;;;;;;3.10;2.03;;;27.10;91.60;;;;;;5085739;28;20417;-66
2023/07/14 12:09:54;;;;;;;3.37;2.63;;;27.00;91.00;;;;;;5079237;28;20437;-69
2023/07/14 12:12:20;;;;;;;2.20;2.00;;;26.90;91.50;;;;;;5074712;28;20440;-67
2023/07/14 12:14:48;;;;;;;2.57;2.37;;;27.00;89.30;;;;;;5080556;28;20793;-67
2023/07/14 12:17:36;;;;;;;4.37;2.83;;;26.00;90.50;;;;;;5087960;28;20607;-66
2023/07/14 12:20:13;;;;;;;7.20;4.80;;;25.90;90.40;;;;;;5077416;28;20427;-67
2023/07/14 12:22:41;;;;;;;4.10;2.30;;;26.10;90.30;;;;;;5055121;28;20437;-66
2023/07/14 12:25:12;;;;;;;4.60;3.30;;;26.50;88.60;;;;;;5075413;28;20450;-66
2023/07/14 12:27:44;;;;;;;4.53;3.90;;;27.00;90.40;;;;;;5074782;28;20528;-67
2023/07/14 12:30:24;;;;;;;4.33;3.40;;;27.20;90.20;;;;;;5066864;28;20440;-68
2023/07/14 12:32:55;;;;;;;3.10;2.53;;;27.30;90.50;;;;;;5082547;28;20434;-67
2023/07/14 12:35:24;;;;;;;2.90;2.30;;;27.30;89.50;;;;;;5082768;28;20409;-68
2023/07/14 12:37:50;;;;;;;5.00;2.20;;;26.90;88.90;;;;;;5082923;28;20603;-67
2023/07/14 12:40:23;;;;;;;3.33;2.57;;;26.00;88.30;;;;;;5082672;28;20973;-67
2023/07/14 12:42:50;;;;;;;3.13;2.60;;;25.50;90.80;;;;;;5083052;28;20299;-67
2023/07/14 12:45:18;;;;;;;6.20;3.27;;;25.40;90.50;;;;;;5083414;28;20905;-67
2023/07/14 12:47:52;;;;;;;4.07;3.67;;;25.70;90.80;;;;;;5062959;28;20841;-68
2023/07/14 12:50:21;;;;;;;4.67;3.30;;;25.90;91.50;;;;;;5062019;28;20798;-68
2023/07/14 12:52:48;;;;;;;3.20;2.60;;;25.70;91.20;;;;;;5062333;28;21010;-66
2023/07/14 12:55:19;;;;;;;2.70;2.50;;;25.70;90.00;;;;;;5064658;28;20438;-71
2023/07/14 12:57:48;;;;;;;2.90;2.33;;;25.90;89.10;;;;;;5058611;28;20493;-67
2023/07/14 13:00:19;;;;;;;3.33;2.73;;;25.60;89.30;;;;;;5071392;28;20427;-67
2023/07/14 13:02:46;;;;;;;2.50;2.30;;;25.70;90.30;;;;;;5078570;28;20444;-67
2023/07/14 13:05:13;;;;;;;3.60;2.80;;;25.50;91.00;;;;;;5066307;28;20409;-67
2023/07/14 13:07:50;;;;;;;7.77;3.20;;;25.70;91.10;;;;;;5082157;28;20443;-66